createdAt,value
2017-06-18T00:02:16.988Z,17.90
2017-06-18T00:04:45.314Z,17.90
2017-06-18T00:07:14.027Z,17.90
2017-06-18T00:09:43.087Z,17.80
2017-06-18T00:12:11.494Z,17.70
2017-06-18T00:14:40.683Z,17.90
2017-06-18T00:17:09.080Z,17.90
2017-06-18T00:19:38.072Z,18.00
2017-06-18T00:22:06.396Z,18.00
2017-06-18T00:24:34.930Z,18.00
2017-06-18T00:27:03.411Z,18.10
2017-06-18T00:29:32.605Z,18.00
2017-06-18T00:32:00.915Z,18.00
2017-06-18T00:34:29.242Z,18.00
2017-06-18T00:36:58.375Z,18.10
2017-06-18T00:39:26.729Z,18.00
2017-06-18T00:41:55.827Z,18.10
2017-06-18T00:44:25.023Z,18.10
2017-06-18T00:46:54.121Z,18.10
2017-06-18T00:49:23.214Z,18.10
2017-06-18T00:51:51.594Z,18.10
2017-06-18T00:54:19.950Z,18.10
2017-06-18T00:56:49.045Z,18.00
2017-06-18T00:59:17.431Z,18.00
2017-06-18T01:01:46.522Z,18.00
2017-06-18T01:04:15.592Z,18.00
2017-06-18T01:06:43.950Z,18.00
2017-06-18T01:09:12.263Z,18.00
2017-06-18T01:11:41.798Z,18.00
2017-06-18T01:14:11.335Z,18.00
2017-06-18T01:16:39.638Z,18.00
2017-06-18T01:19:08.462Z,18.00
2017-06-18T01:21:37.523Z,18.00
2017-06-18T01:24:05.839Z,18.00
2017-06-18T01:26:34.512Z,18.10
2017-06-18T01:29:03.602Z,18.20
2017-06-18T01:31:32.706Z,18.20
2017-06-18T01:34:01.209Z,18.10
2017-06-18T01:36:29.520Z,18.20
2017-06-18T01:38:57.834Z,18.10
2017-06-18T01:41:26.179Z,18.00
2017-06-18T01:43:55.406Z,18.00
2017-06-18T01:46:24.676Z,18.00
2017-06-18T01:48:53.086Z,17.90
2017-06-18T01:51:23.003Z,17.80
2017-06-18T01:53:52.147Z,17.80
2017-06-18T01:56:20.587Z,17.80
2017-06-18T01:58:48.962Z,17.80
2017-06-18T02:01:17.303Z,17.70
2017-06-18T02:03:46.431Z,17.50
2017-06-18T02:06:14.805Z,17.50
2017-06-18T02:08:43.911Z,17.40
2017-06-18T02:11:12.276Z,17.40
2017-06-18T02:13:41.471Z,17.30
2017-06-18T02:16:10.548Z,17.30
2017-06-18T02:18:39.049Z,17.20
2017-06-18T02:21:08.122Z,17.10
2017-06-18T02:23:36.522Z,17.10
2017-06-18T02:26:05.627Z,17.10
2017-06-18T02:28:33.998Z,17.00
2017-06-18T02:31:03.088Z,17.00
2017-06-18T02:33:32.159Z,17.00
2017-06-18T02:36:00.968Z,16.90
2017-06-18T02:38:29.263Z,16.90
2017-06-18T02:40:57.652Z,16.90
2017-06-18T02:43:26.038Z,16.80
2017-06-18T02:45:54.710Z,16.70
2017-06-18T02:48:23.078Z,16.70
2017-06-18T02:50:51.443Z,16.70
2017-06-18T02:53:20.551Z,16.70
2017-06-18T02:55:48.931Z,16.60
2017-06-18T02:58:17.230Z,16.60
2017-06-18T03:00:45.581Z,16.70
2017-06-18T03:03:14.423Z,16.70
2017-06-18T03:05:42.735Z,16.70
2017-06-18T03:08:11.115Z,16.70
2017-06-18T03:10:40.218Z,16.60
2017-06-18T03:13:09.302Z,16.60
2017-06-18T03:15:37.991Z,16.50
2017-06-18T03:18:06.365Z,16.60
2017-06-18T03:20:35.431Z,16.60
2017-06-18T03:23:09.360Z,16.50
2017-06-18T03:25:37.813Z,16.50
2017-06-18T03:28:06.117Z,16.50
2017-06-18T03:30:35.228Z,16.50
2017-06-18T03:33:04.312Z,16.40
2017-06-18T03:35:32.695Z,16.40
2017-06-18T03:38:01.035Z,16.40
2017-06-18T03:40:29.446Z,16.40
2017-06-18T03:42:58.542Z,16.50
2017-06-18T03:45:26.923Z,16.40
2017-06-18T03:47:56.112Z,16.50
2017-06-18T03:50:25.192Z,16.50
2017-06-18T03:52:53.476Z,16.50
2017-06-18T03:55:21.835Z,16.60
2017-06-18T03:57:50.242Z,16.70
2017-06-18T04:00:19.352Z,16.80
2017-06-18T04:02:47.674Z,16.80
2017-06-18T04:05:16.016Z,16.90
2017-06-18T04:10:18.174Z,17.00
2017-06-18T04:12:46.551Z,17.10
2017-06-18T04:15:15.627Z,17.20
2017-06-18T04:17:44.036Z,17.10
2017-06-18T04:20:13.130Z,17.30
2017-06-18T04:22:41.436Z,17.30
2017-06-18T04:25:09.766Z,17.40
2017-06-18T04:27:38.839Z,17.50
2017-06-18T04:30:07.140Z,17.40
2017-06-18T04:32:36.342Z,17.60
2017-06-18T04:35:06.323Z,17.70
2017-06-18T04:37:34.664Z,17.60
2017-06-18T04:40:03.015Z,17.70
2017-06-18T04:42:31.390Z,17.70
2017-06-18T04:44:59.731Z,17.70
2017-06-18T04:47:28.253Z,17.60
2017-06-18T04:49:57.371Z,17.60
2017-06-18T04:52:25.683Z,17.50
2017-06-18T04:54:54.109Z,17.60
2017-06-18T04:57:23.294Z,17.60
2017-06-18T04:59:52.403Z,17.60
2017-06-18T05:02:20.777Z,17.50
2017-06-18T05:04:49.080Z,17.60
2017-06-18T05:07:17.423Z,17.60
2017-06-18T05:09:46.499Z,17.70
2017-06-18T05:12:14.827Z,17.60
2017-06-18T05:14:43.387Z,17.70
2017-06-18T05:17:11.674Z,17.70
2017-06-18T05:19:40.052Z,17.80
2017-06-18T05:22:08.421Z,17.80
2017-06-18T05:24:36.783Z,17.90
2017-06-18T05:27:05.895Z,18.10
2017-06-18T05:29:34.372Z,18.00
2017-06-18T05:32:03.451Z,18.30
2017-06-18T05:34:32.550Z,18.50
2017-06-18T05:37:00.967Z,18.40
2017-06-18T05:39:29.331Z,18.70
2017-06-18T05:41:57.695Z,18.80
2017-06-18T05:44:26.085Z,19.00
2017-06-18T05:46:54.391Z,19.30
2017-06-18T05:49:22.710Z,19.30
2017-06-18T05:51:51.822Z,19.30
2017-06-18T05:54:20.198Z,19.20
2017-06-18T05:56:48.566Z,19.30
2017-06-18T05:59:17.642Z,19.00
2017-06-18T06:01:45.963Z,18.90
2017-06-18T06:04:14.266Z,19.10
2017-06-18T06:06:42.611Z,19.20
2017-06-18T06:09:10.973Z,19.20
2017-06-18T06:11:40.069Z,19.40
2017-06-18T06:14:08.572Z,19.40
2017-06-18T06:16:36.881Z,19.30
2017-06-18T06:19:05.215Z,19.20
2017-06-18T06:21:34.267Z,19.10
2017-06-18T06:24:02.673Z,19.00
2017-06-18T06:26:31.161Z,19.10
2017-06-18T06:29:00.447Z,19.10
2017-06-18T06:31:29.555Z,19.20
2017-06-18T06:33:58.655Z,19.50
2017-06-18T06:36:27.030Z,19.50
2017-06-18T06:38:55.397Z,19.60
2017-06-18T06:41:23.805Z,19.60
2017-06-18T06:43:52.114Z,19.50
2017-06-18T06:46:21.222Z,19.50
2017-06-18T06:48:49.620Z,19.40
2017-06-18T06:51:18.719Z,19.40
2017-06-18T06:53:47.789Z,19.40
2017-06-18T06:56:16.196Z,19.40
2017-06-18T06:58:44.575Z,19.70
2017-06-18T07:01:13.659Z,20.00
2017-06-18T07:03:42.735Z,19.90
2017-06-18T07:06:11.136Z,19.80
2017-06-18T07:08:39.623Z,19.70
2017-06-18T07:11:08.001Z,19.80
2017-06-18T07:13:37.202Z,20.30
2017-06-18T07:16:05.518Z,20.30
2017-06-18T07:18:33.950Z,20.40
2017-06-18T07:21:03.017Z,20.30
2017-06-18T07:23:31.338Z,20.30
2017-06-18T07:25:59.647Z,20.30
2017-06-18T07:28:28.687Z,20.40
2017-06-18T07:30:57.789Z,20.80
2017-06-18T07:33:26.886Z,21.10
2017-06-18T07:35:55.983Z,21.00
2017-06-18T07:38:24.354Z,21.00
2017-06-18T07:40:53.550Z,20.90
2017-06-18T07:43:22.638Z,21.20
2017-06-18T07:45:51.737Z,21.60
2017-06-18T07:48:21.057Z,21.60
2017-06-18T07:50:49.406Z,21.80
2017-06-18T07:53:18.481Z,21.80
2017-06-18T07:55:46.883Z,21.80
2017-06-18T07:58:16.099Z,21.90
2017-06-18T08:00:45.182Z,21.80
2017-06-18T08:03:13.537Z,21.70
2017-06-18T08:05:42.172Z,21.90
2017-06-18T08:08:10.470Z,21.80
2017-06-18T08:10:38.827Z,22.00
2017-06-18T08:13:07.183Z,21.80
2017-06-18T08:15:35.545Z,21.90
2017-06-18T08:18:04.632Z,21.60
2017-06-18T08:20:33.848Z,21.60
2017-06-18T08:23:03.049Z,21.40
2017-06-18T08:25:31.530Z,21.40
2017-06-18T08:27:59.832Z,21.60
2017-06-18T08:30:28.191Z,21.80
2017-06-18T08:32:56.515Z,21.80
2017-06-18T08:35:24.831Z,21.50
2017-06-18T08:37:53.941Z,21.60
2017-06-18T08:40:22.996Z,21.90
2017-06-18T08:42:51.340Z,21.80
2017-06-18T08:45:20.148Z,22.00
2017-06-18T08:47:48.463Z,22.20
2017-06-18T08:50:17.546Z,22.80
2017-06-18T08:52:45.937Z,22.80
2017-06-18T08:55:14.275Z,23.00
2017-06-18T08:57:43.418Z,22.40
2017-06-18T09:00:11.760Z,22.40
2017-06-18T09:02:40.164Z,21.90
2017-06-18T09:05:08.518Z,21.90
2017-06-18T09:07:36.839Z,22.10
2017-06-18T09:10:05.147Z,22.50
2017-06-18T09:12:33.473Z,22.60
2017-06-18T09:15:02.538Z,22.30
2017-06-18T09:17:30.879Z,22.20
2017-06-18T09:19:59.201Z,22.10
2017-06-18T09:22:27.497Z,22.30
2017-06-18T09:24:56.999Z,22.60
2017-06-18T09:27:25.392Z,22.60
2017-06-18T09:29:53.712Z,22.50
2017-06-18T09:32:21.995Z,22.60
2017-06-18T09:34:50.411Z,23.00
2017-06-18T09:37:18.726Z,23.30
2017-06-18T09:39:47.075Z,23.40
2017-06-18T09:42:15.400Z,23.40
2017-06-18T09:44:44.334Z,23.20
2017-06-18T09:47:13.544Z,22.90
2017-06-18T09:49:42.632Z,23.10
2017-06-18T09:52:11.924Z,23.50
2017-06-18T09:54:40.312Z,23.50
2017-06-18T09:57:08.618Z,24.00
2017-06-18T09:59:36.975Z,24.30
2017-06-18T10:02:05.320Z,24.40
2017-06-18T10:04:34.024Z,24.40
2017-06-18T10:07:02.351Z,24.20
2017-06-18T10:09:30.677Z,24.40
2017-06-18T10:11:59.069Z,25.00
2017-06-18T10:14:27.482Z,25.70
2017-06-18T10:16:56.016Z,25.80
2017-06-18T10:19:24.327Z,25.60
2017-06-18T10:21:58.614Z,25.60
2017-06-18T10:24:26.988Z,25.20
2017-06-18T10:26:55.315Z,24.90
2017-06-18T10:29:23.636Z,25.00
2017-06-18T10:31:52.011Z,25.30
2017-06-18T10:34:20.802Z,25.40
2017-06-18T10:36:49.179Z,25.70
2017-06-18T10:39:17.683Z,26.00
2017-06-18T10:41:46.243Z,26.00
2017-06-18T10:44:14.569Z,26.10
2017-06-18T10:46:42.903Z,26.10
2017-06-18T10:49:12.091Z,26.30
2017-06-18T10:51:40.402Z,26.30
2017-06-18T10:54:08.740Z,26.10
2017-06-18T10:56:37.094Z,26.20
2017-06-18T10:59:05.698Z,26.40
2017-06-18T11:01:34.026Z,26.60
2017-06-18T11:04:02.350Z,26.30
2017-06-18T11:06:31.602Z,26.80
2017-06-18T11:08:59.951Z,26.70
2017-06-18T11:11:28.734Z,26.90
2017-06-18T11:13:57.072Z,26.80
2017-06-18T11:16:25.890Z,26.60
2017-06-18T11:18:54.663Z,26.60
2017-06-18T11:21:22.995Z,26.60
2017-06-18T11:23:51.308Z,26.60
2017-06-18T11:26:19.627Z,26.50
2017-06-18T11:28:47.941Z,26.30
2017-06-18T11:31:16.472Z,26.30
2017-06-18T11:33:44.815Z,26.90
2017-06-18T11:36:13.943Z,27.70
2017-06-18T11:38:42.275Z,27.60
2017-06-18T11:41:10.798Z,27.90
2017-06-18T11:43:39.173Z,28.20
2017-06-18T11:46:08.297Z,28.40
2017-06-18T11:48:37.139Z,28.40
2017-06-18T11:51:06.243Z,28.60
2017-06-18T11:53:35.342Z,28.80
2017-06-18T11:56:03.673Z,28.70
2017-06-18T11:58:31.999Z,28.90
2017-06-18T12:01:01.096Z,28.20
2017-06-18T12:03:29.477Z,28.20
2017-06-18T12:05:58.789Z,27.60
2017-06-18T12:08:27.252Z,27.50
2017-06-18T12:10:56.340Z,27.50
2017-06-18T12:13:25.444Z,27.80
2017-06-18T12:15:53.930Z,27.70
2017-06-18T12:18:22.234Z,27.60
2017-06-18T12:20:50.555Z,27.70
2017-06-18T12:23:18.886Z,27.90
2017-06-18T12:25:47.192Z,27.70
2017-06-18T12:28:15.527Z,27.60
2017-06-18T12:30:43.895Z,27.60
2017-06-18T12:33:13.278Z,27.90
2017-06-18T12:35:41.557Z,27.80
2017-06-18T12:38:10.038Z,27.90
2017-06-18T12:40:38.403Z,28.10
2017-06-18T12:43:06.799Z,28.30
2017-06-18T12:45:35.182Z,28.40
2017-06-18T12:48:03.502Z,28.30
2017-06-18T12:50:31.799Z,28.40
2017-06-18T12:53:00.149Z,28.60
2017-06-18T12:55:28.591Z,28.10
2017-06-18T12:57:57.651Z,27.80
2017-06-18T13:00:26.874Z,27.80
2017-06-18T13:02:55.972Z,28.00
2017-06-18T13:05:24.354Z,27.90
2017-06-18T13:07:52.731Z,28.10
2017-06-18T13:10:21.114Z,27.90
2017-06-18T13:12:50.182Z,27.70
2017-06-18T13:15:19.395Z,27.40
2017-06-18T13:17:48.500Z,27.60
2017-06-18T13:20:16.844Z,27.50
2017-06-18T13:22:45.172Z,27.80
2017-06-18T13:25:13.625Z,27.70
2017-06-18T13:27:42.719Z,27.70
2017-06-18T13:30:11.079Z,27.60
2017-06-18T13:32:39.467Z,27.50
2017-06-18T13:35:07.801Z,27.50
2017-06-18T13:37:36.126Z,27.80
2017-06-18T13:40:04.473Z,28.10
2017-06-18T13:42:32.828Z,28.10
2017-06-18T13:45:01.159Z,27.90
2017-06-18T13:47:29.545Z,27.90
2017-06-18T13:50:31.711Z,28.00
2017-06-18T13:53:00.092Z,28.00
2017-06-18T13:55:28.463Z,28.10
2017-06-18T13:57:57.658Z,28.00
2017-06-18T14:00:26.047Z,27.90
2017-06-18T14:02:54.357Z,28.00
2017-06-18T14:05:22.710Z,28.00
2017-06-18T14:07:51.900Z,28.20
2017-06-18T14:10:20.266Z,28.20
2017-06-18T14:12:49.344Z,28.90
2017-06-18T14:15:17.739Z,28.90
2017-06-18T14:17:46.844Z,29.00
2017-06-18T14:20:15.160Z,28.90
2017-06-18T14:22:43.608Z,28.80
2017-06-18T14:25:12.692Z,28.40
2017-06-18T14:27:41.080Z,28.40
2017-06-18T14:30:09.431Z,28.30
2017-06-18T14:32:37.818Z,28.30
2017-06-18T14:35:06.927Z,28.30
2017-06-18T14:37:35.990Z,28.50
2017-06-18T14:40:05.123Z,28.70
2017-06-18T14:42:33.460Z,28.70
2017-06-18T14:45:01.756Z,29.00
2017-06-18T14:47:30.876Z,28.90
2017-06-18T14:49:59.235Z,28.80
2017-06-18T14:52:27.599Z,29.10
2017-06-18T14:54:56.707Z,29.40
2017-06-18T14:57:25.065Z,29.30
2017-06-18T14:59:53.463Z,29.60
2017-06-18T15:02:21.791Z,29.80
2017-06-18T15:04:50.216Z,30.30
2017-06-18T15:07:18.591Z,30.90
2017-06-18T15:09:46.978Z,31.60
2017-06-18T15:12:16.563Z,32.30
2017-06-18T15:14:44.894Z,32.20
2017-06-18T15:17:13.271Z,32.40
2017-06-18T15:19:41.579Z,32.70
2017-06-18T15:22:10.207Z,33.60
2017-06-18T15:24:38.578Z,34.50
2017-06-18T15:27:07.667Z,35.90
2017-06-18T15:29:35.986Z,35.90
2017-06-18T15:32:04.306Z,35.60
2017-06-18T15:34:33.524Z,34.50
2017-06-18T15:37:02.587Z,34.30
2017-06-18T15:39:31.719Z,34.30
2017-06-18T15:42:00.074Z,34.30
2017-06-18T15:44:28.414Z,34.40
2017-06-18T15:46:56.798Z,34.10
2017-06-18T15:49:25.139Z,34.80
2017-06-18T15:51:53.464Z,35.90
2017-06-18T15:54:21.748Z,37.40
2017-06-18T15:56:50.086Z,37.60
2017-06-18T15:59:18.532Z,36.70
2017-06-18T16:01:50.128Z,36.30
2017-06-18T16:04:19.293Z,36.10
2017-06-18T16:06:47.763Z,36.00
2017-06-18T16:09:16.843Z,37.00
2017-06-18T16:11:45.232Z,36.90
2017-06-18T16:14:13.558Z,37.80
2017-06-18T16:16:41.867Z,38.60
2017-06-18T16:21:40.383Z,40.70
2017-06-18T16:24:09.451Z,42.20
2017-06-18T16:26:38.174Z,42.10
2017-06-18T16:29:06.544Z,43.10
2017-06-18T16:31:34.924Z,43.60
2017-06-18T16:34:03.316Z,44.20
2017-06-18T16:36:31.611Z,44.80
2017-06-18T16:38:59.951Z,44.90
2017-06-18T16:41:29.064Z,45.10
2017-06-18T16:43:57.398Z,45.00
2017-06-18T16:46:26.526Z,45.40
2017-06-18T16:48:54.898Z,45.40
2017-06-18T16:51:23.272Z,45.50
2017-06-18T16:53:52.380Z,45.80
2017-06-18T16:56:21.031Z,45.70
2017-06-18T16:58:49.436Z,45.60
2017-06-18T17:01:17.808Z,45.40
2017-06-18T17:03:46.289Z,45.40
2017-06-18T17:06:14.684Z,45.30
2017-06-18T17:08:42.987Z,45.10
2017-06-18T17:11:11.287Z,44.60
2017-06-18T17:13:39.742Z,44.10
2017-06-18T17:16:08.051Z,43.60
2017-06-18T17:18:37.139Z,42.70
2017-06-18T17:21:11.155Z,42.70
2017-06-18T17:23:40.247Z,41.30
2017-06-18T17:26:08.581Z,41.20
2017-06-18T17:28:36.936Z,41.10
2017-06-18T17:31:05.280Z,41.30
2017-06-18T17:33:33.591Z,41.20
2017-06-18T17:36:02.783Z,41.10
2017-06-18T17:38:32.054Z,41.00
2017-06-18T17:41:00.402Z,41.10
2017-06-18T17:43:28.836Z,41.50
2017-06-18T17:45:57.907Z,41.60
2017-06-18T17:48:27.044Z,41.60
2017-06-18T17:50:55.411Z,41.50
2017-06-18T17:53:23.916Z,41.60
2017-06-18T17:55:52.210Z,41.50
2017-06-18T17:58:20.764Z,41.40
2017-06-18T18:00:49.091Z,40.90
2017-06-18T18:03:17.495Z,40.30
2017-06-18T18:05:46.592Z,38.50
2017-06-18T18:08:14.907Z,38.40
2017-06-18T18:10:43.354Z,37.70
2017-06-18T18:13:11.667Z,36.90
2017-06-18T18:15:40.009Z,36.10
2017-06-18T18:18:08.454Z,35.40
2017-06-18T18:20:36.793Z,34.50
2017-06-18T18:23:05.443Z,33.60
2017-06-18T18:25:33.823Z,33.00
2017-06-18T18:28:02.926Z,32.00
2017-06-18T18:30:31.996Z,31.50
2017-06-18T18:33:01.287Z,31.40
2017-06-18T18:35:29.657Z,31.00
2017-06-18T18:37:57.972Z,30.70
2017-06-18T18:40:26.368Z,30.50
2017-06-18T18:42:54.731Z,30.40
2017-06-18T18:45:23.083Z,30.20
2017-06-18T18:47:51.434Z,29.90
2017-06-18T18:50:19.716Z,29.60
2017-06-18T18:52:48.058Z,29.40
2017-06-18T18:55:16.390Z,29.20
2017-06-18T18:57:44.710Z,29.00
2017-06-18T19:00:13.038Z,28.70
2017-06-18T19:02:42.346Z,28.30
2017-06-18T19:05:11.431Z,28.20
2017-06-18T19:07:39.834Z,28.10
2017-06-18T19:10:08.182Z,27.90
2017-06-18T19:12:36.513Z,27.70
2017-06-18T19:15:04.969Z,27.50
2017-06-18T19:17:33.459Z,27.30
2017-06-18T19:20:02.521Z,27.00
2017-06-18T19:22:30.920Z,27.00
2017-06-18T19:25:00.000Z,26.70
2017-06-18T19:27:29.279Z,26.50
2017-06-18T19:29:57.660Z,26.50
2017-06-18T19:32:25.987Z,26.30
2017-06-18T19:34:54.351Z,26.10
2017-06-18T19:37:23.421Z,25.70
2017-06-18T19:39:51.790Z,25.70
2017-06-18T19:42:20.120Z,25.50
2017-06-18T19:44:48.666Z,25.40
2017-06-18T19:47:17.427Z,25.30
2017-06-18T19:49:45.760Z,25.10
2017-06-18T19:52:14.295Z,25.00
2017-06-18T19:54:42.603Z,24.90
2017-06-18T19:57:10.982Z,24.80
2017-06-18T19:59:39.309Z,24.70
2017-06-18T20:02:07.658Z,24.60
2017-06-18T20:04:35.976Z,24.50
2017-06-18T20:07:04.301Z,24.40
2017-06-18T20:09:32.662Z,24.30
2017-06-18T20:12:01.729Z,24.10
2017-06-18T20:14:30.357Z,24.10
2017-06-18T20:16:58.731Z,24.10
2017-06-18T20:19:27.821Z,23.90
2017-06-18T20:21:56.138Z,23.80
2017-06-18T20:24:24.512Z,23.80
2017-06-18T20:26:52.816Z,23.70
2017-06-18T20:29:21.142Z,23.60
2017-06-18T20:31:49.518Z,23.60
2017-06-18T20:34:17.872Z,23.50
2017-06-18T20:36:46.371Z,23.50
2017-06-18T20:39:14.682Z,23.40
2017-06-18T20:41:42.999Z,23.40
2017-06-18T20:44:11.710Z,23.20
2017-06-18T20:46:40.075Z,23.20
2017-06-18T20:49:08.451Z,23.10
2017-06-18T20:51:36.829Z,23.10
2017-06-18T20:54:05.162Z,23.00
2017-06-18T20:56:33.582Z,23.00
2017-06-18T20:59:02.435Z,22.90
2017-06-18T21:01:30.848Z,22.80
2017-06-18T21:03:59.987Z,22.70
2017-06-18T21:06:28.323Z,22.60
2017-06-18T21:08:56.706Z,22.60
2017-06-18T21:11:25.018Z,22.60
2017-06-18T21:13:53.354Z,22.50
2017-06-18T21:16:21.686Z,22.50
2017-06-18T21:18:50.102Z,22.50
2017-06-18T21:21:19.190Z,22.30
2017-06-18T21:23:47.486Z,22.30
2017-06-18T21:26:15.824Z,22.30
2017-06-18T21:28:44.136Z,22.20
2017-06-18T21:31:13.215Z,22.10
2017-06-18T21:33:41.490Z,22.00
2017-06-18T21:36:10.000Z,22.00
2017-06-18T21:38:39.086Z,21.90
2017-06-18T21:41:07.456Z,21.80
2017-06-18T21:43:35.838Z,21.80
2017-06-18T21:46:04.927Z,21.70
2017-06-18T21:48:34.015Z,21.60
2017-06-18T21:51:02.326Z,21.60
2017-06-18T21:53:30.642Z,21.60
2017-06-18T21:55:58.968Z,21.60
2017-06-18T21:58:27.318Z,21.50
2017-06-18T22:00:56.427Z,21.50
2017-06-18T22:03:24.738Z,21.40
2017-06-18T22:05:53.091Z,21.40
2017-06-18T22:08:22.190Z,21.40
2017-06-18T22:10:50.515Z,21.30
2017-06-18T22:13:18.876Z,21.30
2017-06-18T22:15:47.919Z,21.30
2017-06-18T22:18:16.300Z,21.30
2017-06-18T22:20:44.687Z,21.20
2017-06-18T22:23:13.016Z,21.20
2017-06-18T22:25:41.351Z,21.20
2017-06-18T22:28:09.706Z,21.10
2017-06-18T22:30:38.794Z,21.10
2017-06-18T22:33:08.002Z,21.00
2017-06-18T22:35:37.087Z,20.90
2017-06-18T22:38:05.441Z,20.90
2017-06-18T22:40:33.914Z,20.90
2017-06-18T22:43:02.236Z,20.80
2017-06-18T22:45:30.699Z,20.80
2017-06-18T22:47:59.772Z,20.70
2017-06-18T22:50:28.196Z,20.60
2017-06-18T22:52:57.976Z,20.60
2017-06-18T22:55:26.487Z,20.50
2017-06-18T22:57:54.834Z,20.50
2017-06-18T23:00:23.145Z,20.50
2017-06-18T23:02:51.520Z,20.40
2017-06-18T23:05:20.569Z,20.40
2017-06-18T23:07:48.899Z,20.30
2017-06-18T23:10:17.267Z,20.30
2017-06-18T23:12:45.640Z,20.30
2017-06-18T23:15:13.991Z,20.20
2017-06-18T23:17:42.297Z,20.20
2017-06-18T23:20:10.667Z,20.20
2017-06-18T23:22:39.761Z,20.10
2017-06-18T23:25:08.856Z,20.10
2017-06-18T23:27:38.053Z,20.10
2017-06-18T23:30:06.430Z,20.00
2017-06-18T23:32:35.536Z,20.00
2017-06-18T23:35:03.867Z,19.90
2017-06-18T23:37:32.199Z,20.00
2017-06-18T23:40:00.560Z,20.00
2017-06-18T23:42:29.036Z,19.90
2017-06-18T23:44:57.421Z,19.90
2017-06-18T23:47:26.479Z,19.90
2017-06-18T23:49:54.849Z,19.80
2017-06-18T23:52:23.172Z,19.90
2017-06-18T23:54:51.487Z,19.80
2017-06-18T23:57:19.928Z,19.80
2017-06-18T23:59:49.001Z,19.70
